Ana Sayfa
METAR-TAF:

METAR-TAF

Havaalanları :

Butterworth, Malezya

Enlem: 05-27-58N, Boylam: 100-23-28E, yükseklik: 2 m

Güncel hava durumu gözlemi

Rapor saat 19:00 UTC de 1 saat ve 8 dakika önce yapıldı.
Rüzgar kuzeydan 3 kt
Sıcaklık 25°C
Nem 83%
Basınç 1010 hPa
Görüş mesafesi: 8000 m
2400 ft yükseklikte az bulutlu

METAR: WMKB 071900Z 01003KT 8000 FEW024 25/22 Q1010 NOSIG

Saat: 04:08 (20:08 UTC)

Tahmin

Rapor saat 17:00 UTC de 3 saat ve 8 dakika önce yapıldı.
Ayın 07'si saat 18 UTC'den ayın 08'si saat 18 UTC'ye kadar geçerli Tahmin
Rüzgar kuzey/kuzeydoğudan 8 kt
Görüş mesafesi: 8000 m
2400 ft yükseklikte az bulutlu
Dönüşüyor
ayın 08'si saat 00 UTC'den ayın 08'si saat 02 UTC'ye kadar
Rüzgar kuzey/kuzeydoğudan 10 kt
Görüş mesafesi 10 km veya daha fazla
2000 ft yükseklikte az bulutlu

TAF: WMKB 071700Z 0718/0818 03008KT 8000 FEW024 BECMG 0800/0802 03010KT 9999 FEW020

4.000'den fazla havaalanı için hava durumu gözlemleri ve tahminleri (METAR ve TAF raporları).

Kullanılabilir istasyonlar harita üzerinde sarı ve kırmızı noktalarla gösterilir.

İstasyonun adını görmek için fareyi noktanın üzerinde gezdirin.

Sonrasında hava gözlem ve tahminlerini görmek için tıklayın.

Haritayı değiştirmek için: yaklaştırmak için siyah artı işaretli yeşil düğmeye ve uzaklaştırmak için de eksi işaretli düğmeye hızla tıklayın; bitişik haritalar için yeşil okları kullanın.


METAR-TAF: